sensor_id;sensor_type;location;lat;lon;timestamp;temperature;humidity
6540;DHT22;50344;51.142;16.892;2024-02-28T00:02:07;22.90;44.40
6540;DHT22;50344;51.142;16.892;2024-02-28T00:04:33;22.90;44.50
6540;DHT22;50344;51.142;16.892;2024-02-28T00:06:58;22.90;44.40
6540;DHT22;50344;51.142;16.892;2024-02-28T00:09:24;22.90;44.40
6540;DHT22;50344;51.142;16.892;2024-02-28T00:11:50;22.90;44.40
6540;DHT22;50344;51.142;16.892;2024-02-28T00:14:15;22.90;44.40
6540;DHT22;50344;51.142;16.892;2024-02-28T00:16:44;22.90;44.20
6540;DHT22;50344;51.142;16.892;2024-02-28T00:19:11;22.90;44.20
6540;DHT22;50344;51.142;16.892;2024-02-28T00:21:37;22.90;44.40
6540;DHT22;50344;51.142;16.892;2024-02-28T00:24:03;22.90;44.30
6540;DHT22;50344;51.142;16.892;2024-02-28T00:26:29;22.90;44.30
6540;DHT22;50344;51.142;16.892;2024-02-28T00:28:54;22.90;44.30
6540;DHT22;50344;51.142;16.892;2024-02-28T00:31:20;22.90;44.20
6540;DHT22;50344;51.142;16.892;2024-02-28T00:33:47;22.90;44.20
6540;DHT22;50344;51.142;16.892;2024-02-28T00:36:12;22.90;44.30
6540;DHT22;50344;51.142;16.892;2024-02-28T00:38:38;22.90;44.10
6540;DHT22;50344;51.142;16.892;2024-02-28T00:41:03;22.90;44.40
6540;DHT22;50344;51.142;16.892;2024-02-28T00:43:29;22.90;44.40
6540;DHT22;50344;51.142;16.892;2024-02-28T00:45:54;22.90;44.30
6540;DHT22;50344;51.142;16.892;2024-02-28T00:48:21;22.90;44.30
6540;DHT22;50344;51.142;16.892;2024-02-28T00:50:47;22.90;44.20
6540;DHT22;50344;51.142;16.892;2024-02-28T00:53:12;22.90;44.00
6540;DHT22;50344;51.142;16.892;2024-02-28T00:55:38;22.90;44.10
6540;DHT22;50344;51.142;16.892;2024-02-28T00:58:03;22.90;44.00
6540;DHT22;50344;51.142;16.892;2024-02-28T01:00:29;22.90;44.00
6540;DHT22;50344;51.142;16.892;2024-02-28T01:02:55;22.90;43.90
6540;DHT22;50344;51.142;16.892;2024-02-28T01:05:21;22.90;44.00
6540;DHT22;50344;51.142;16.892;2024-02-28T01:07:46;22.90;43.90
6540;DHT22;50344;51.142;16.892;2024-02-28T01:10:12;22.90;43.80
6540;DHT22;50344;51.142;16.892;2024-02-28T01:12:37;22.90;43.70
6540;DHT22;50344;51.142;16.892;2024-02-28T01:15:03;22.90;43.30
6540;DHT22;50344;51.142;16.892;2024-02-28T01:17:29;22.90;43.60
6540;DHT22;50344;51.142;16.892;2024-02-28T01:19:54;22.90;43.70
6540;DHT22;50344;51.142;16.892;2024-02-28T01:22:20;22.90;43.80
6540;DHT22;50344;51.142;16.892;2024-02-28T01:24:45;22.90;43.90
6540;DHT22;50344;51.142;16.892;2024-02-28T01:27:11;22.90;43.90
6540;DHT22;50344;51.142;16.892;2024-02-28T01:29:36;22.90;43.90
6540;DHT22;50344;51.142;16.892;2024-02-28T01:32:02;22.90;43.90
6540;DHT22;50344;51.142;16.892;2024-02-28T01:34:28;22.90;43.90
6540;DHT22;50344;51.142;16.892;2024-02-28T01:36:53;22.90;43.60
6540;DHT22;50344;51.142;16.892;2024-02-28T01:39:19;22.80;43.90
6540;DHT22;50344;51.142;16.892;2024-02-28T01:41:51;22.90;43.70
6540;DHT22;50344;51.142;16.892;2024-02-28T01:44:16;22.90;43.80
6540;DHT22;50344;51.142;16.892;2024-02-28T01:46:42;22.90;43.90
6540;DHT22;50344;51.142;16.892;2024-02-28T01:49:07;22.90;43.70
6540;DHT22;50344;51.142;16.892;2024-02-28T01:51:33;22.90;43.60
6540;DHT22;50344;51.142;16.892;2024-02-28T01:53:59;22.90;43.60
6540;DHT22;50344;51.142;16.892;2024-02-28T01:56:25;22.80;43.50
6540;DHT22;50344;51.142;16.892;2024-02-28T01:58:51;22.90;43.40
6540;DHT22;50344;51.142;16.892;2024-02-28T02:01:17;22.90;43.40
6540;DHT22;50344;51.142;16.892;2024-02-28T02:03:43;23.00;43.40
6540;DHT22;50344;51.142;16.892;2024-02-28T02:06:09;22.90;43.60
6540;DHT22;50344;51.142;16.892;2024-02-28T02:08:36;22.90;43.50
6540;DHT22;50344;51.142;16.892;2024-02-28T02:11:01;22.90;43.40
6540;DHT22;50344;51.142;16.892;2024-02-28T02:13:27;22.90;43.50
6540;DHT22;50344;51.142;16.892;2024-02-28T02:15:52;22.90;43.40
6540;DHT22;50344;51.142;16.892;2024-02-28T02:18:18;22.90;43.40
6540;DHT22;50344;51.142;16.892;2024-02-28T02:20:44;22.90;43.30
6540;DHT22;50344;51.142;16.892;2024-02-28T02:23:11;22.90;43.30
6540;DHT22;50344;51.142;16.892;2024-02-28T02:25:47;22.90;43.30
6540;DHT22;50344;51.142;16.892;2024-02-28T02:28:13;22.90;43.30
6540;DHT22;50344;51.142;16.892;2024-02-28T02:30:39;22.90;43.30
6540;DHT22;50344;51.142;16.892;2024-02-28T02:33:05;22.90;43.30
6540;DHT22;50344;51.142;16.892;2024-02-28T02:35:31;22.90;43.30
6540;DHT22;50344;51.142;16.892;2024-02-28T02:37:56;22.90;43.30
6540;DHT22;50344;51.142;16.892;2024-02-28T02:40:22;22.80;43.20
6540;DHT22;50344;51.142;16.892;2024-02-28T02:42:48;22.90;43.40
6540;DHT22;50344;51.142;16.892;2024-02-28T02:45:13;22.90;43.30
6540;DHT22;50344;51.142;16.892;2024-02-28T02:47:39;22.90;43.30
6540;DHT22;50344;51.142;16.892;2024-02-28T02:50:05;22.80;43.20
6540;DHT22;50344;51.142;16.892;2024-02-28T02:52:30;22.90;43.30
6540;DHT22;50344;51.142;16.892;2024-02-28T02:54:56;22.90;43.30
6540;DHT22;50344;51.142;16.892;2024-02-28T02:57:21;22.90;43.40
6540;DHT22;50344;51.142;16.892;2024-02-28T02:59:47;22.80;43.30
6540;DHT22;50344;51.142;16.892;2024-02-28T03:02:12;22.90;43.30
6540;DHT22;50344;51.142;16.892;2024-02-28T03:04:38;23.30;43.70
6540;DHT22;50344;51.142;16.892;2024-02-28T03:07:03;22.80;43.20
6540;DHT22;50344;51.142;16.892;2024-02-28T03:09:29;22.80;43.20
6540;DHT22;50344;51.142;16.892;2024-02-28T03:11:54;22.80;43.20
6540;DHT22;50344;51.142;16.892;2024-02-28T03:14:20;22.80;43.20
6540;DHT22;50344;51.142;16.892;2024-02-28T03:16:47;22.90;43.30
6540;DHT22;50344;51.142;16.892;2024-02-28T03:19:14;22.80;43.20
6540;DHT22;50344;51.142;16.892;2024-02-28T03:21:40;22.80;43.20
6540;DHT22;50344;51.142;16.892;2024-02-28T03:24:06;22.80;43.30
6540;DHT22;50344;51.142;16.892;2024-02-28T03:26:32;22.80;43.20
6540;DHT22;50344;51.142;16.892;2024-02-28T03:28:57;22.80;43.20
6540;DHT22;50344;51.142;16.892;2024-02-28T03:31:23;22.90;43.30
6540;DHT22;50344;51.142;16.892;2024-02-28T03:33:49;22.90;43.30
6540;DHT22;50344;51.142;16.892;2024-02-28T03:36:14;22.90;43.30
6540;DHT22;50344;51.142;16.892;2024-02-28T03:38:40;22.80;43.20
6540;DHT22;50344;51.142;16.892;2024-02-28T03:41:06;22.90;43.30
6540;DHT22;50344;51.142;16.892;2024-02-28T03:43:31;22.80;43.20
6540;DHT22;50344;51.142;16.892;2024-02-28T03:45:57;22.80;43.20
6540;DHT22;50344;51.142;16.892;2024-02-28T03:48:22;22.80;43.20
6540;DHT22;50344;51.142;16.892;2024-02-28T03:50:48;22.80;43.20
6540;DHT22;50344;51.142;16.892;2024-02-28T03:53:13;22.80;43.20
6540;DHT22;50344;51.142;16.892;2024-02-28T03:55:39;22.80;43.20
6540;DHT22;50344;51.142;16.892;2024-02-28T03:58:04;22.80;43.20
6540;DHT22;50344;51.142;16.892;2024-02-28T04:00:32;22.80;43.20
6540;DHT22;50344;51.142;16.892;2024-02-28T04:02:57;22.80;43.20
6540;DHT22;50344;51.142;16.892;2024-02-28T04:05:23;22.80;43.20
6540;DHT22;50344;51.142;16.892;2024-02-28T04:07:48;22.80;43.20
6540;DHT22;50344;51.142;16.892;2024-02-28T04:10:14;22.80;43.20
6540;DHT22;50344;51.142;16.892;2024-02-28T04:12:42;22.80;43.20
6540;DHT22;50344;51.142;16.892;2024-02-28T04:15:07;22.80;43.20
6540;DHT22;50344;51.142;16.892;2024-02-28T04:17:33;22.80;43.20
6540;DHT22;50344;51.142;16.892;2024-02-28T04:19:58;22.80;43.20
6540;DHT22;50344;51.142;16.892;2024-02-28T04:22:24;22.80;43.20
6540;DHT22;50344;51.142;16.892;2024-02-28T04:24:50;22.80;43.20
6540;DHT22;50344;51.142;16.892;2024-02-28T04:27:15;22.80;43.30
6540;DHT22;50344;51.142;16.892;2024-02-28T04:29:41;22.80;43.20
6540;DHT22;50344;51.142;16.892;2024-02-28T04:32:06;22.80;43.20
6540;DHT22;50344;51.142;16.892;2024-02-28T04:34:32;22.80;43.20
6540;DHT22;50344;51.142;16.892;2024-02-28T04:36:57;22.80;43.20
6540;DHT22;50344;51.142;16.892;2024-02-28T04:39:23;22.80;43.20
6540;DHT22;50344;51.142;16.892;2024-02-28T04:41:48;22.80;43.20
6540;DHT22;50344;51.142;16.892;2024-02-28T04:44:14;22.80;43.20
6540;DHT22;50344;51.142;16.892;2024-02-28T04:46:39;22.80;43.20
6540;DHT22;50344;51.142;16.892;2024-02-28T04:49:05;22.80;43.30
6540;DHT22;50344;51.142;16.892;2024-02-28T04:51:30;22.80;43.20
6540;DHT22;50344;51.142;16.892;2024-02-28T04:53:56;22.80;43.30
6540;DHT22;50344;51.142;16.892;2024-02-28T04:56:21;22.80;43.20
6540;DHT22;50344;51.142;16.892;2024-02-28T04:58:47;22.80;43.20
6540;DHT22;50344;51.142;16.892;2024-02-28T05:01:12;22.50;42.90
6540;DHT22;50344;51.142;16.892;2024-02-28T05:03:38;22.80;43.30
6540;DHT22;50344;51.142;16.892;2024-02-28T05:06:04;22.80;43.20
6540;DHT22;50344;51.142;16.892;2024-02-28T05:08:29;22.80;43.20
6540;DHT22;50344;51.142;16.892;2024-02-28T05:10:55;22.80;43.20
6540;DHT22;50344;51.142;16.892;2024-02-28T05:13:20;22.80;43.20
6540;DHT22;50344;51.142;16.892;2024-02-28T05:15:47;22.70;43.10
6540;DHT22;50344;51.142;16.892;2024-02-28T05:18:13;22.80;43.20
6540;DHT22;50344;51.142;16.892;2024-02-28T05:20:38;22.80;43.20
6540;DHT22;50344;51.142;16.892;2024-02-28T05:23:04;22.80;43.20
6540;DHT22;50344;51.142;16.892;2024-02-28T05:25:29;22.80;43.20
6540;DHT22;50344;51.142;16.892;2024-02-28T05:27:55;22.80;43.20
6540;DHT22;50344;51.142;16.892;2024-02-28T05:30:20;22.70;43.10
6540;DHT22;50344;51.142;16.892;2024-02-28T05:32:46;22.80;43.20
6540;DHT22;50344;51.142;16.892;2024-02-28T05:35:11;22.80;43.20
6540;DHT22;50344;51.142;16.892;2024-02-28T05:37:37;22.70;43.10
6540;DHT22;50344;51.142;16.892;2024-02-28T05:40:03;22.80;43.20
6540;DHT22;50344;51.142;16.892;2024-02-28T05:42:28;22.80;43.20
6540;DHT22;50344;51.142;16.892;2024-02-28T05:44:54;22.80;43.20
6540;DHT22;50344;51.142;16.892;2024-02-28T05:47:19;22.80;43.20
6540;DHT22;50344;51.142;16.892;2024-02-28T05:49:45;22.80;43.20
6540;DHT22;50344;51.142;16.892;2024-02-28T05:52:11;22.80;43.20
6540;DHT22;50344;51.142;16.892;2024-02-28T05:54:36;22.80;43.20
6540;DHT22;50344;51.142;16.892;2024-02-28T05:57:02;22.80;43.20
6540;DHT22;50344;51.142;16.892;2024-02-28T05:59:27;22.80;43.20
6540;DHT22;50344;51.142;16.892;2024-02-28T06:01:53;22.70;43.10
6540;DHT22;50344;51.142;16.892;2024-02-28T06:04:18;22.70;43.20
6540;DHT22;50344;51.142;16.892;2024-02-28T06:06:44;22.70;43.20
6540;DHT22;50344;51.142;16.892;2024-02-28T06:09:10;22.70;43.20
6540;DHT22;50344;51.142;16.892;2024-02-28T06:11:36;22.70;43.30
6540;DHT22;50344;51.142;16.892;2024-02-28T06:14:01;22.70;44.10
6540;DHT22;50344;51.142;16.892;2024-02-28T06:16:29;22.70;44.50
6540;DHT22;50344;51.142;16.892;2024-02-28T06:18:54;22.70;45.30
6540;DHT22;50344;51.142;16.892;2024-02-28T06:21:23;22.70;45.40
6540;DHT22;50344;51.142;16.892;2024-02-28T06:23:48;22.70;45.40
6540;DHT22;50344;51.142;16.892;2024-02-28T06:26:14;22.70;45.40
6540;DHT22;50344;51.142;16.892;2024-02-28T06:28:45;22.70;45.90
6540;DHT22;50344;51.142;16.892;2024-02-28T06:31:11;22.70;45.70
6540;DHT22;50344;51.142;16.892;2024-02-28T06:33:37;22.70;45.90
6540;DHT22;50344;51.142;16.892;2024-02-28T06:36:03;22.70;45.10
6540;DHT22;50344;51.142;16.892;2024-02-28T06:38:28;22.70;45.80
6540;DHT22;50344;51.142;16.892;2024-02-28T06:40:54;22.70;45.90
6540;DHT22;50344;51.142;16.892;2024-02-28T06:43:20;22.70;46.10
6540;DHT22;50344;51.142;16.892;2024-02-28T06:45:45;22.70;46.30
6540;DHT22;50344;51.142;16.892;2024-02-28T06:48:11;22.70;45.80
6540;DHT22;50344;51.142;16.892;2024-02-28T06:50:36;22.80;46.40
6540;DHT22;50344;51.142;16.892;2024-02-28T06:53:02;22.80;46.20
6540;DHT22;50344;51.142;16.892;2024-02-28T06:55:27;22.80;46.40
6540;DHT22;50344;51.142;16.892;2024-02-28T06:57:53;22.70;46.40
6540;DHT22;50344;51.142;16.892;2024-02-28T07:00:18;22.70;46.20
6540;DHT22;50344;51.142;16.892;2024-02-28T07:02:44;22.80;46.00
6540;DHT22;50344;51.142;16.892;2024-02-28T07:05:10;22.70;46.10
6540;DHT22;50344;51.142;16.892;2024-02-28T07:07:35;22.70;46.00
6540;DHT22;50344;51.142;16.892;2024-02-28T07:10:04;22.70;46.00
6540;DHT22;50344;51.142;16.892;2024-02-28T07:12:30;22.70;45.80
6540;DHT22;50344;51.142;16.892;2024-02-28T07:14:55;22.70;45.80
6540;DHT22;50344;51.142;16.892;2024-02-28T07:17:21;22.70;45.60
6540;DHT22;50344;51.142;16.892;2024-02-28T07:19:47;22.70;45.70
6540;DHT22;50344;51.142;16.892;2024-02-28T07:22:13;22.70;45.60
6540;DHT22;50344;51.142;16.892;2024-02-28T07:24:39;22.70;45.60
6540;DHT22;50344;51.142;16.892;2024-02-28T07:27:04;22.70;45.50
6540;DHT22;50344;51.142;16.892;2024-02-28T07:29:30;22.70;45.40
6540;DHT22;50344;51.142;16.892;2024-02-28T07:31:55;22.70;45.40
6540;DHT22;50344;51.142;16.892;2024-02-28T07:34:21;22.60;45.30
6540;DHT22;50344;51.142;16.892;2024-02-28T07:36:47;22.60;45.20
6540;DHT22;50344;51.142;16.892;2024-02-28T07:39:12;22.60;45.30
6540;DHT22;50344;51.142;16.892;2024-02-28T07:41:40;22.60;45.20
6540;DHT22;50344;51.142;16.892;2024-02-28T07:44:07;22.60;45.20
6540;DHT22;50344;51.142;16.892;2024-02-28T07:46:33;22.60;45.10
6540;DHT22;50344;51.142;16.892;2024-02-28T07:48:58;22.60;45.10
6540;DHT22;50344;51.142;16.892;2024-02-28T07:51:24;22.60;45.00
6540;DHT22;50344;51.142;16.892;2024-02-28T07:53:49;22.60;45.00
6540;DHT22;50344;51.142;16.892;2024-02-28T07:56:16;22.60;45.00
6540;DHT22;50344;51.142;16.892;2024-02-28T07:58:42;22.60;44.90
6540;DHT22;50344;51.142;16.892;2024-02-28T08:01:08;22.70;45.00
6540;DHT22;50344;51.142;16.892;2024-02-28T08:03:34;22.60;44.90
6540;DHT22;50344;51.142;16.892;2024-02-28T08:05:59;22.60;44.80
6540;DHT22;50344;51.142;16.892;2024-02-28T08:08:25;22.60;44.90
6540;DHT22;50344;51.142;16.892;2024-02-28T08:10:50;22.60;44.80
6540;DHT22;50344;51.142;16.892;2024-02-28T08:13:18;22.60;44.90
6540;DHT22;50344;51.142;16.892;2024-02-28T08:15:44;22.60;44.80
6540;DHT22;50344;51.142;16.892;2024-02-28T08:18:09;22.60;44.80
6540;DHT22;50344;51.142;16.892;2024-02-28T08:20:36;22.60;44.80
6540;DHT22;50344;51.142;16.892;2024-02-28T08:23:02;22.60;44.70
6540;DHT22;50344;51.142;16.892;2024-02-28T08:25:28;22.60;44.70
6540;DHT22;50344;51.142;16.892;2024-02-28T08:27:54;22.60;44.70
6540;DHT22;50344;51.142;16.892;2024-02-28T08:30:20;22.60;44.60
6540;DHT22;50344;51.142;16.892;2024-02-28T08:32:45;22.60;44.70
6540;DHT22;50344;51.142;16.892;2024-02-28T08:35:11;22.60;44.60
6540;DHT22;50344;51.142;16.892;2024-02-28T08:37:40;22.60;44.50
6540;DHT22;50344;51.142;16.892;2024-02-28T08:40:06;22.60;44.50
6540;DHT22;50344;51.142;16.892;2024-02-28T08:42:32;22.60;44.50
6540;DHT22;50344;51.142;16.892;2024-02-28T08:44:57;22.60;44.50
6540;DHT22;50344;51.142;16.892;2024-02-28T08:47:25;22.60;44.50
6540;DHT22;50344;51.142;16.892;2024-02-28T08:49:51;22.60;44.40
6540;DHT22;50344;51.142;16.892;2024-02-28T08:52:16;22.60;44.40
6540;DHT22;50344;51.142;16.892;2024-02-28T08:54:42;22.60;44.40
6540;DHT22;50344;51.142;16.892;2024-02-28T08:57:07;22.60;44.40
6540;DHT22;50344;51.142;16.892;2024-02-28T08:59:33;22.60;44.40
6540;DHT22;50344;51.142;16.892;2024-02-28T09:01:59;22.60;44.30
6540;DHT22;50344;51.142;16.892;2024-02-28T09:04:24;22.60;44.30
6540;DHT22;50344;51.142;16.892;2024-02-28T09:06:50;22.60;44.20
6540;DHT22;50344;51.142;16.892;2024-02-28T09:09:15;22.60;44.30
6540;DHT22;50344;51.142;16.892;2024-02-28T09:11:42;22.60;44.20
6540;DHT22;50344;51.142;16.892;2024-02-28T09:14:07;22.60;44.10
6540;DHT22;50344;51.142;16.892;2024-02-28T09:16:33;22.60;44.10
6540;DHT22;50344;51.142;16.892;2024-02-28T09:18:58;22.60;44.10
6540;DHT22;50344;51.142;16.892;2024-02-28T09:21:24;22.60;44.00
6540;DHT22;50344;51.142;16.892;2024-02-28T09:23:49;22.60;44.00
6540;DHT22;50344;51.142;16.892;2024-02-28T09:26:15;22.60;44.00
6540;DHT22;50344;51.142;16.892;2024-02-28T09:28:40;22.60;44.00
6540;DHT22;50344;51.142;16.892;2024-02-28T09:31:06;22.60;43.90
6540;DHT22;50344;51.142;16.892;2024-02-28T09:33:31;22.60;44.00
6540;DHT22;50344;51.142;16.892;2024-02-28T09:35:57;22.60;43.90
6540;DHT22;50344;51.142;16.892;2024-02-28T09:38:22;22.60;43.90
6540;DHT22;50344;51.142;16.892;2024-02-28T09:40:48;22.60;43.90
6540;DHT22;50344;51.142;16.892;2024-02-28T09:43:30;22.60;43.80
6540;DHT22;50344;51.142;16.892;2024-02-28T09:45:58;22.60;43.80
6540;DHT22;50344;51.142;16.892;2024-02-28T09:48:24;22.60;43.80
6540;DHT22;50344;51.142;16.892;2024-02-28T09:50:53;22.60;43.80
6540;DHT22;50344;51.142;16.892;2024-02-28T09:53:19;22.60;43.70
6540;DHT22;50344;51.142;16.892;2024-02-28T09:55:44;22.60;43.60
6540;DHT22;50344;51.142;16.892;2024-02-28T09:58:11;22.30;43.40
6540;DHT22;50344;51.142;16.892;2024-02-28T10:00:36;22.60;43.60
6540;DHT22;50344;51.142;16.892;2024-02-28T10:03:03;22.60;43.50
6540;DHT22;50344;51.142;16.892;2024-02-28T10:05:29;22.60;43.60
6540;DHT22;50344;51.142;16.892;2024-02-28T10:07:55;22.60;43.60
6540;DHT22;50344;51.142;16.892;2024-02-28T10:10:21;22.60;43.60
6540;DHT22;50344;51.142;16.892;2024-02-28T10:12:47;22.50;43.50
6540;DHT22;50344;51.142;16.892;2024-02-28T10:15:12;23.00;43.90
6540;DHT22;50344;51.142;16.892;2024-02-28T10:17:38;22.50;43.40
6540;DHT22;50344;51.142;16.892;2024-02-28T10:20:03;22.60;43.50
6540;DHT22;50344;51.142;16.892;2024-02-28T10:22:38;22.50;43.30
6540;DHT22;50344;51.142;16.892;2024-02-28T10:25:04;22.60;43.40
6540;DHT22;50344;51.142;16.892;2024-02-28T10:27:33;22.50;43.30
6540;DHT22;50344;51.142;16.892;2024-02-28T10:29:59;22.50;43.30
6540;DHT22;50344;51.142;16.892;2024-02-28T10:32:25;22.50;43.30
6540;DHT22;50344;51.142;16.892;2024-02-28T10:34:51;22.50;43.10
6540;DHT22;50344;51.142;16.892;2024-02-28T10:37:17;22.50;43.00
6540;DHT22;50344;51.142;16.892;2024-02-28T10:39:43;22.60;43.00
6540;DHT22;50344;51.142;16.892;2024-02-28T10:42:08;22.40;42.90
6540;DHT22;50344;51.142;16.892;2024-02-28T10:44:34;22.50;42.90
6540;DHT22;50344;51.142;16.892;2024-02-28T10:47:00;22.50;42.90
6540;DHT22;50344;51.142;16.892;2024-02-28T10:49:26;22.50;42.90
6540;DHT22;50344;51.142;16.892;2024-02-28T10:51:52;22.50;43.00
6540;DHT22;50344;51.142;16.892;2024-02-28T10:54:20;22.50;42.90
6540;DHT22;50344;51.142;16.892;2024-02-28T10:56:46;22.50;42.90
6540;DHT22;50344;51.142;16.892;2024-02-28T10:59:14;22.50;42.90
6540;DHT22;50344;51.142;16.892;2024-02-28T11:01:40;22.60;43.00
6540;DHT22;50344;51.142;16.892;2024-02-28T11:04:11;22.60;43.00
6540;DHT22;50344;51.142;16.892;2024-02-28T11:06:50;22.60;43.00
6540;DHT22;50344;51.142;16.892;2024-02-28T11:09:19;22.60;43.00
6540;DHT22;50344;51.142;16.892;2024-02-28T11:11:48;22.60;43.00
6540;DHT22;50344;51.142;16.892;2024-02-28T11:14:14;22.60;43.00
6540;DHT22;50344;51.142;16.892;2024-02-28T11:16:40;22.60;43.00
6540;DHT22;50344;51.142;16.892;2024-02-28T11:19:09;22.60;43.00
6540;DHT22;50344;51.142;16.892;2024-02-28T11:21:44;22.50;42.90
6540;DHT22;50344;51.142;16.892;2024-02-28T11:24:09;22.50;42.90
6540;DHT22;50344;51.142;16.892;2024-02-28T11:26:38;22.60;43.00
6540;DHT22;50344;51.142;16.892;2024-02-28T11:29:03;22.60;43.00
6540;DHT22;50344;51.142;16.892;2024-02-28T11:31:29;22.50;42.90
6540;DHT22;50344;51.142;16.892;2024-02-28T11:33:54;22.50;42.90
6540;DHT22;50344;51.142;16.892;2024-02-28T11:36:20;22.50;42.90
6540;DHT22;50344;51.142;16.892;2024-02-28T11:38:45;22.50;42.90
6540;DHT22;50344;51.142;16.892;2024-02-28T11:41:11;22.50;42.90
6540;DHT22;50344;51.142;16.892;2024-02-28T11:43:37;22.50;42.90
6540;DHT22;50344;51.142;16.892;2024-02-28T11:46:11;22.50;42.90
6540;DHT22;50344;51.142;16.892;2024-02-28T11:48:36;22.50;42.90
6540;DHT22;50344;51.142;16.892;2024-02-28T11:51:02;22.50;42.90
6540;DHT22;50344;51.142;16.892;2024-02-28T11:53:28;22.50;42.90
6540;DHT22;50344;51.142;16.892;2024-02-28T11:55:53;22.30;42.80
6540;DHT22;50344;51.142;16.892;2024-02-28T11:58:23;22.50;42.90
6540;DHT22;50344;51.142;16.892;2024-02-28T12:00:49;22.50;42.90
6540;DHT22;50344;51.142;16.892;2024-02-28T12:03:22;22.50;42.90
6540;DHT22;50344;51.142;16.892;2024-02-28T12:05:47;22.50;42.90
6540;DHT22;50344;51.142;16.892;2024-02-28T12:08:13;22.50;42.90
6540;DHT22;50344;51.142;16.892;2024-02-28T12:10:38;22.20;42.60
6540;DHT22;50344;51.142;16.892;2024-02-28T12:13:04;22.50;42.90
6540;DHT22;50344;51.142;16.892;2024-02-28T12:15:30;22.50;42.90
6540;DHT22;50344;51.142;16.892;2024-02-28T12:17:56;22.50;42.90
6540;DHT22;50344;51.142;16.892;2024-02-28T12:20:23;22.50;42.90
6540;DHT22;50344;51.142;16.892;2024-02-28T12:22:48;22.50;42.90
6540;DHT22;50344;51.142;16.892;2024-02-28T12:25:14;22.50;42.90
6540;DHT22;50344;51.142;16.892;2024-02-28T12:27:40;22.50;42.90
6540;DHT22;50344;51.142;16.892;2024-02-28T12:30:06;22.50;42.90
6540;DHT22;50344;51.142;16.892;2024-02-28T12:32:31;22.50;42.90
6540;DHT22;50344;51.142;16.892;2024-02-28T12:34:57;22.50;42.90
6540;DHT22;50344;51.142;16.892;2024-02-28T12:37:22;22.50;43.60
6540;DHT22;50344;51.142;16.892;2024-02-28T12:39:48;22.50;42.90
6540;DHT22;50344;51.142;16.892;2024-02-28T12:42:14;22.50;42.90
6540;DHT22;50344;51.142;16.892;2024-02-28T12:44:39;22.50;42.90
6540;DHT22;50344;51.142;16.892;2024-02-28T12:47:06;22.50;42.90
6540;DHT22;50344;51.142;16.892;2024-02-28T12:49:31;22.50;42.90
6540;DHT22;50344;51.142;16.892;2024-02-28T12:51:57;22.50;42.90
6540;DHT22;50344;51.142;16.892;2024-02-28T12:54:23;22.50;42.90
6540;DHT22;50344;51.142;16.892;2024-02-28T12:56:48;22.50;42.90
6540;DHT22;50344;51.142;16.892;2024-02-28T12:59:14;22.50;42.90
6540;DHT22;50344;51.142;16.892;2024-02-28T13:01:40;22.50;42.90
6540;DHT22;50344;51.142;16.892;2024-02-28T13:04:06;22.50;42.70
6540;DHT22;50344;51.142;16.892;2024-02-28T13:06:32;22.50;42.70
6540;DHT22;50344;51.142;16.892;2024-02-28T13:08:57;22.50;42.70
6540;DHT22;50344;51.142;16.892;2024-02-28T13:11:23;22.50;42.60
6540;DHT22;50344;51.142;16.892;2024-02-28T13:13:49;22.50;42.40
6540;DHT22;50344;51.142;16.892;2024-02-28T13:16:19;22.50;42.50
6540;DHT22;50344;51.142;16.892;2024-02-28T13:18:44;22.50;42.40
6540;DHT22;50344;51.142;16.892;2024-02-28T13:21:10;22.50;42.30
6540;DHT22;50344;51.142;16.892;2024-02-28T13:23:36;22.50;42.40
6540;DHT22;50344;51.142;16.892;2024-02-28T13:26:05;22.50;42.40
6540;DHT22;50344;51.142;16.892;2024-02-28T13:28:31;22.50;42.50
6540;DHT22;50344;51.142;16.892;2024-02-28T13:30:57;22.50;42.60
6540;DHT22;50344;51.142;16.892;2024-02-28T13:33:23;22.50;42.80
6540;DHT22;50344;51.142;16.892;2024-02-28T13:35:48;22.50;42.60
6540;DHT22;50344;51.142;16.892;2024-02-28T13:38:14;22.50;42.50
6540;DHT22;50344;51.142;16.892;2024-02-28T13:40:39;22.50;42.40
6540;DHT22;50344;51.142;16.892;2024-02-28T13:43:06;22.50;42.40
6540;DHT22;50344;51.142;16.892;2024-02-28T13:45:32;22.50;42.40
6540;DHT22;50344;51.142;16.892;2024-02-28T13:47:58;22.50;42.40
6540;DHT22;50344;51.142;16.892;2024-02-28T13:50:23;22.50;42.40
6540;DHT22;50344;51.142;16.892;2024-02-28T13:52:59;22.40;42.20
6540;DHT22;50344;51.142;16.892;2024-02-28T13:55:25;22.50;42.40
6540;DHT22;50344;51.142;16.892;2024-02-28T13:57:51;22.50;42.30
6540;DHT22;50344;51.142;16.892;2024-02-28T14:00:16;22.50;42.40
6540;DHT22;50344;51.142;16.892;2024-02-28T14:02:42;22.50;42.20
6540;DHT22;50344;51.142;16.892;2024-02-28T14:05:07;22.50;42.30
6540;DHT22;50344;51.142;16.892;2024-02-28T14:07:33;22.50;42.20
6540;DHT22;50344;51.142;16.892;2024-02-28T14:10:01;22.50;42.30
6540;DHT22;50344;51.142;16.892;2024-02-28T14:12:26;22.50;42.20
6540;DHT22;50344;51.142;16.892;2024-02-28T14:14:52;22.50;42.20
6540;DHT22;50344;51.142;16.892;2024-02-28T14:17:17;22.50;42.30
6540;DHT22;50344;51.142;16.892;2024-02-28T14:19:43;22.40;42.10
6540;DHT22;50344;51.142;16.892;2024-02-28T14:22:09;22.40;42.20
6540;DHT22;50344;51.142;16.892;2024-02-28T14:24:37;22.40;42.10
6540;DHT22;50344;51.142;16.892;2024-02-28T14:27:04;22.40;42.20
6540;DHT22;50344;51.142;16.892;2024-02-28T14:29:30;22.40;42.10
6540;DHT22;50344;51.142;16.892;2024-02-28T14:31:55;22.40;42.20
6540;DHT22;50344;51.142;16.892;2024-02-28T14:34:21;22.40;42.10
6540;DHT22;50344;51.142;16.892;2024-02-28T14:36:47;22.40;42.00
6540;DHT22;50344;51.142;16.892;2024-02-28T14:39:13;22.40;42.00
6540;DHT22;50344;51.142;16.892;2024-02-28T14:41:43;22.50;42.10
6540;DHT22;50344;51.142;16.892;2024-02-28T14:44:12;22.40;41.90
6540;DHT22;50344;51.142;16.892;2024-02-28T14:46:37;22.40;41.70
6540;DHT22;50344;51.142;16.892;2024-02-28T14:49:03;22.40;41.80
6540;DHT22;50344;51.142;16.892;2024-02-28T14:51:28;22.40;41.80
6540;DHT22;50344;51.142;16.892;2024-02-28T14:53:58;22.40;41.80
6540;DHT22;50344;51.142;16.892;2024-02-28T14:56:23;22.40;41.60
6540;DHT22;50344;51.142;16.892;2024-02-28T14:58:49;22.50;41.60
6540;DHT22;50344;51.142;16.892;2024-02-28T15:01:14;22.50;41.60
6540;DHT22;50344;51.142;16.892;2024-02-28T15:03:40;22.50;41.60
6540;DHT22;50344;51.142;16.892;2024-02-28T15:06:06;22.50;41.60
6540;DHT22;50344;51.142;16.892;2024-02-28T15:08:32;22.50;41.60
6540;DHT22;50344;51.142;16.892;2024-02-28T15:10:57;22.50;41.60
6540;DHT22;50344;51.142;16.892;2024-02-28T15:13:23;22.50;41.60
6540;DHT22;50344;51.142;16.892;2024-02-28T15:15:49;22.50;41.40
6540;DHT22;50344;51.142;16.892;2024-02-28T15:18:14;22.50;41.20
6540;DHT22;50344;51.142;16.892;2024-02-28T15:20:40;22.50;41.00
6540;DHT22;50344;51.142;16.892;2024-02-28T15:23:05;22.50;41.00